Time;durP1;ratioP1;P1;durP2;ratioP2;P2;SDS_P1;SDS_P2;PMS_P1;PMS_P2;Temp;Humidity;BMP_temperature;BMP_pressure;BME280_temperature;BME280_humidity;BME280_pressure;Samples;Min_cycle;Max_cycle;Signal;HPM_P1;HPM_P2
2021/05/22 00:08:17;;;;;;;4.57;1.73;;;21.50;45.60;;;;;;20835682;28;20053;-63
2021/05/22 00:18:18;;;;;;;2.22;1.15;;;21.40;45.80;;;;;;20834566;28;20053;-65
2021/05/22 00:28:19;;;;;;;3.47;1.98;;;21.20;45.70;;;;;;20833826;28;20069;-65
2021/05/22 00:38:21;;;;;;;2.40;1.23;;;21.10;45.60;;;;;;20833504;28;20072;-66
2021/05/22 00:48:23;;;;;;;2.20;0.97;;;20.90;45.20;;;;;;20832659;28;20103;-64
2021/05/22 00:58:24;;;;;;;2.85;1.30;;;20.80;44.80;;;;;;20832020;28;20061;-64
2021/05/22 01:08:26;;;;;;;3.17;1.40;;;20.70;44.20;;;;;;20830688;28;20060;-63
2021/05/22 01:18:27;;;;;;;10.77;6.25;;;20.70;44.00;;;;;;20830992;28;20046;-65
2021/05/22 01:28:29;;;;;;;5.47;2.55;;;20.60;43.70;;;;;;20830796;28;20057;-62
2021/05/22 01:38:30;;;;;;;2.85;0.90;;;20.50;43.60;;;;;;20830207;28;20045;-63
2021/05/22 01:48:33;;;;;;;9.50;6.72;;;20.40;43.60;;;;;;20830711;28;20049;-65
2021/05/22 01:58:34;;;;;;;5.38;2.10;;;20.30;43.50;;;;;;20841150;28;20045;-65
2021/05/22 02:08:41;;;;;;;8.13;5.03;;;20.30;43.20;;;;;;20846054;28;20421;-64
2021/05/22 02:18:45;;;;;;;2.38;0.80;;;20.20;42.80;;;;;;20843910;28;20413;-63
2021/05/22 02:28:48;;;;;;;;;;;19.90;42.20;;;;;;20842162;28;20520;-64
2021/05/22 02:38:51;;;;;;;2.83;1.10;;;19.70;42.00;;;;;;20843103;28;19921;-63
2021/05/22 02:48:54;;;;;;;2.07;1.07;;;19.70;41.50;;;;;;20842057;28;20485;-63
2021/05/22 02:58:56;;;;;;;5.07;1.10;;;19.60;41.10;;;;;;20841011;28;20064;-63
2021/05/22 03:08:58;;;;;;;2.53;1.05;;;19.60;40.20;;;;;;20839430;28;20453;-64
2021/05/22 03:18:59;;;;;;;2.90;1.10;;;19.40;40.00;;;;;;20854195;28;20103;-65
2021/05/22 03:29:00;;;;;;;3.72;1.42;;;19.40;40.10;;;;;;20838305;28;20418;-64
2021/05/22 03:39:04;;;;;;;4.80;1.40;;;19.30;39.70;;;;;;20837851;28;20053;-64
2021/05/22 03:49:05;;;;;;;3.63;1.20;;;19.20;40.20;;;;;;20836915;28;20405;-63
2021/05/22 03:59:06;;;;;;;3.90;1.40;;;19.10;40.50;;;;;;20836438;28;20531;-62
2021/05/22 04:09:08;;;;;;;4.50;1.95;;;19.00;40.80;;;;;;20835172;28;20057;-64
2021/05/22 04:19:09;;;;;;;2.97;1.40;;;19.00;41.30;;;;;;20833411;28;20045;-65
2021/05/22 04:29:10;;;;;;;4.25;1.33;;;18.90;41.30;;;;;;20832320;28;20057;-63
2021/05/22 04:39:12;;;;;;;4.00;1.45;;;18.80;41.20;;;;;;20832851;28;20128;-65
2021/05/22 04:49:13;;;;;;;3.22;1.23;;;18.70;41.90;;;;;;20830676;28;20052;-65
2021/05/22 04:59:15;;;;;;;5.75;1.60;;;18.60;42.00;;;;;;20833366;28;20041;-64
2021/05/22 05:09:16;;;;;;;4.90;1.60;;;18.40;42.40;;;;;;20831213;28;20552;-63
2021/05/22 05:19:17;;;;;;;6.30;1.88;;;18.40;42.80;;;;;;20830297;28;20099;-63
2021/05/22 05:29:18;;;;;;;4.80;1.95;;;18.40;42.80;;;;;;20829326;28;20061;-63
2021/05/22 05:39:20;;;;;;;5.32;2.10;;;18.30;42.40;;;;;;20829857;28;20049;-64
2021/05/22 05:49:21;;;;;;;4.32;1.48;;;18.20;42.70;;;;;;20829344;28;20045;-64
2021/05/22 05:59:23;;;;;;;5.50;1.67;;;18.20;42.00;;;;;;20831333;28;20402;-64
2021/05/22 06:09:24;;;;;;;6.22;2.00;;;18.20;42.00;;;;;;20828818;28;20053;-65
2021/05/22 06:19:25;;;;;;;6.05;2.10;;;18.20;41.40;;;;;;20827682;28;20046;-65
2021/05/22 06:29:26;;;;;;;3.33;1.50;;;18.10;41.80;;;;;;20827611;28;20465;-59
2021/05/22 06:39:28;;;;;;;3.40;2.08;;;18.20;42.00;;;;;;20830558;28;20543;-60
2021/05/22 06:49:31;;;;;;;5.57;2.05;;;18.30;40.00;;;;;;20841744;28;20045;-59
2021/05/22 06:59:32;;;;;;;;;;;18.60;39.00;;;;;;20841138;28;20095;-60
2021/05/22 07:09:34;;;;;;;6.53;1.70;;;18.70;37.50;;;;;;20839390;28;19921;-64
2021/05/22 07:19:35;;;;;;;4.65;1.75;;;18.70;35.10;;;;;;20838298;28;20080;-65
2021/05/22 07:29:36;;;;;;;5.70;1.40;;;18.70;34.10;;;;;;20836785;28;20061;-64
2021/05/22 07:39:37;;;;;;;5.32;1.65;;;18.80;33.00;;;;;;20835847;28;20053;-64
2021/05/22 07:49:39;;;;;;;4.00;1.40;;;18.90;31.70;;;;;;20836782;28;20056;-63
2021/05/22 07:59:40;;;;;;;4.07;1.50;;;19.10;32.60;;;;;;20835820;28;20050;-65
2021/05/22 08:09:41;;;;;;;4.53;1.48;;;19.20;33.50;;;;;;20834413;28;20063;-64
2021/05/22 08:19:43;;;;;;;4.68;1.17;;;19.40;30.70;;;;;;20834574;28;20108;-65
2021/05/22 08:29:44;;;;;;;3.33;1.50;;;20.10;30.60;;;;;;20832451;28;20080;-63
2021/05/22 08:39:46;;;;;;;3.95;1.33;;;20.60;28.80;;;;;;20832843;28;20490;-64
2021/05/22 08:49:48;;;;;;;3.90;1.45;;;21.20;28.10;;;;;;20847067;28;20053;-64
2021/05/22 08:59:49;;;;;;;6.07;1.50;;;21.60;27.10;;;;;;20832725;28;20046;-64
2021/05/22 09:09:50;;;;;;;3.17;1.60;;;21.90;26.60;;;;;;20832053;28;20057;-64
2021/05/22 09:19:51;;;;;;;5.53;1.70;;;22.10;26.50;;;;;;20865803;28;20050;-65
2021/05/22 09:29:53;;;;;;;2.97;1.10;;;22.20;26.80;;;;;;20830622;28;20053;-65
2021/05/22 09:39:54;;;;;;;4.38;1.63;;;22.50;26.20;;;;;;20830202;28;20053;-66
2021/05/22 09:49:55;;;;;;;8.75;1.92;;;22.60;26.20;;;;;;20829036;28;20057;-65
2021/05/22 10:00:08;;;;;;;2.95;1.00;;;22.70;25.50;;;;;;20828859;28;20084;-64
2021/05/22 10:10:12;;;;;;;4.75;1.77;;;22.80;24.50;;;;;;20827677;28;20509;-60
2021/05/22 10:20:14;;;;;;;2.75;1.00;;;22.70;24.70;;;;;;20839733;28;20049;-60
2021/05/22 10:30:19;;;;;;;5.03;1.47;;;22.80;23.90;;;;;;20842362;28;20069;-60
2021/05/22 10:40:42;;;;;;;3.80;1.38;;;23.20;26.00;;;;;;20841522;28;20859;-63
2021/05/22 10:50:47;;;;;;;7.82;1.27;;;23.50;27.40;;;;;;20840941;28;20045;-65
2021/05/22 11:00:48;;;;;;;6.65;1.58;;;23.80;26.80;;;;;;20840174;28;20045;-66
2021/05/22 11:10:58;;;;;;;3.83;1.30;;;23.90;25.50;;;;;;20839346;28;20049;-66
2021/05/22 11:21:08;;;;;;;3.30;1.20;;;24.00;24.20;;;;;;20838632;28;20057;-65
2021/05/22 11:31:10;;;;;;;4.22;1.05;;;24.30;21.80;;;;;;20837585;28;20505;-65
2021/05/22 11:41:13;;;;;;;2.87;1.10;;;24.30;21.10;;;;;;20838171;28;20042;-66
2021/05/22 11:51:19;;;;;;;2.95;0.93;;;24.20;21.20;;;;;;20848858;28;20112;-67
2021/05/22 12:01:22;;;;;;;3.20;1.50;;;24.40;20.60;;;;;;20835947;28;20512;-66
2021/05/22 12:11:27;;;;;;;3.13;1.05;;;24.10;20.60;;;;;;20834807;28;20076;-65
2021/05/22 12:21:31;;;;;;;5.63;1.52;;;24.40;22.20;;;;;;20833815;28;20045;-67
2021/05/22 12:31:33;;;;;;;2.13;0.82;;;24.30;22.50;;;;;;20833079;28;20057;-68
2021/05/22 12:41:37;;;;;;;3.28;0.98;;;24.40;19.50;;;;;;20832034;28;20512;-68
2021/05/22 12:51:41;;;;;;;2.65;1.10;;;24.20;20.60;;;;;;20831949;28;20098;-67
2021/05/22 13:01:42;;;;;;;2.47;0.90;;;24.30;20.80;;;;;;20831440;28;20045;-67
2021/05/22 13:12:16;;;;;;;4.23;0.90;;;24.40;19.20;;;;;;20830890;28;20093;-66
2021/05/22 13:22:26;;;;;;;2.70;0.70;;;24.60;18.10;;;;;;20578078;28;20054;-67
2021/05/22 13:32:28;;;;;;;2.17;0.82;;;24.60;19.20;;;;;;20577401;28;20055;-67
2021/05/22 13:42:33;;;;;;;2.63;1.20;;;24.50;18.80;;;;;;20577256;28;20047;-66
2021/05/22 13:52:35;;;;;;;2.25;0.70;;;24.60;19.50;;;;;;20676293;28;20057;-67
2021/05/22 14:02:36;;;;;;;3.60;1.00;;;24.70;20.30;;;;;;20845035;28;20053;-66
2021/05/22 14:12:38;;;;;;;2.23;1.17;;;24.70;20.60;;;;;;20844121;28;20325;-67
2021/05/22 14:22:39;;;;;;;1.73;1.07;;;24.70;22.00;;;;;;20843166;28;20528;-66
2021/05/22 14:32:41;;;;;;;1.60;0.80;;;24.70;22.10;;;;;;20843618;28;20053;-65
2021/05/22 14:42:42;;;;;;;3.50;0.80;;;24.70;23.00;;;;;;20843819;28;20414;-68
2021/05/22 14:52:43;;;;;;;2.97;1.10;;;24.70;22.70;;;;;;20843240;28;20424;-67
2021/05/22 15:02:45;;;;;;;1.97;0.70;;;24.70;23.60;;;;;;20842207;28;20046;-65
2021/05/22 15:12:46;;;;;;;2.63;0.90;;;24.70;23.20;;;;;;20841871;28;20219;-65
2021/05/22 15:22:47;;;;;;;1.70;0.80;;;24.60;23.50;;;;;;20840615;28;20053;-67
2021/05/22 15:32:48;;;;;;;3.80;1.07;;;24.60;23.60;;;;;;20839922;28;20056;-67
2021/05/22 15:42:52;;;;;;;2.73;0.70;;;24.40;23.00;;;;;;20839313;28;20099;-66
2021/05/22 16:13:18;;;;;;;3.05;0.85;;;24.30;23.40;;;;;;20837606;28;20053;-65
2021/05/22 16:23:20;;;;;;;2.67;1.70;;;24.20;23.20;;;;;;20834854;28;20056;-65
2021/05/22 16:33:24;;;;;;;2.43;0.97;;;23.90;24.60;;;;;;20834598;28;20049;-65
2021/05/22 16:43:25;;;;;;;2.30;1.20;;;23.80;24.70;;;;;;20833679;28;20048;-66
2021/05/22 16:53:26;;;;;;;5.53;1.17;;;23.50;24.90;;;;;;20832921;28;20434;-66
2021/05/22 17:03:27;;;;;;;4.20;1.02;;;23.10;25.80;;;;;;20834035;28;20049;-66
2021/05/22 17:13:29;;;;;;;5.40;2.50;;;22.60;25.80;;;;;;20832553;28;20049;-66
2021/05/22 17:23:30;;;;;;;1.88;0.90;;;22.40;26.60;;;;;;20832342;28;20049;-66
2021/05/22 17:33:31;;;;;;;5.53;1.00;;;22.20;27.50;;;;;;20827966;28;20494;-65
2021/05/22 17:43:35;;;;;;;2.65;0.85;;;21.90;26.60;;;;;;20829397;28;20076;-67
2021/05/22 17:53:37;;;;;;;2.45;1.13;;;21.70;25.40;;;;;;20829783;28;20108;-66
2021/05/22 18:03:38;;;;;;;3.10;1.00;;;21.60;25.40;;;;;;20828778;28;20042;-67
2021/05/22 18:13:40;;;;;;;3.72;1.05;;;21.40;25.20;;;;;;20828338;28;20057;-67
2021/05/22 18:23:43;;;;;;;2.60;0.80;;;21.30;24.60;;;;;;20826666;28;20049;-67
2021/05/22 18:33:44;;;;;;;2.57;0.97;;;21.20;23.10;;;;;;20842767;28;20429;-66
2021/05/22 18:43:46;;;;;;;2.25;0.90;;;21.10;22.80;;;;;;20841577;28;20291;-65
2021/05/22 18:53:47;;;;;;;1.77;0.75;;;21.20;25.20;;;;;;20840444;28;20065;-65
2021/05/22 19:03:49;;;;;;;3.72;1.40;;;21.00;22.90;;;;;;20840525;28;20050;-67
2021/05/22 19:13:51;;;;;;;2.58;0.98;;;20.80;23.30;;;;;;20839084;28;20060;-67
2021/05/22 19:23:53;;;;;;;2.40;1.00;;;20.80;23.50;;;;;;20837010;28;20049;-68
2021/05/22 19:33:54;;;;;;;2.55;1.20;;;20.70;23.90;;;;;;20841470;28;20064;-66
2021/05/22 19:43:56;;;;;;;2.20;1.10;;;20.70;23.40;;;;;;20857415;28;20050;-65
2021/05/22 19:53:57;;;;;;;4.28;1.30;;;20.70;23.00;;;;;;20836697;28;20127;-65
2021/05/22 20:03:59;;;;;;;4.30;1.05;;;20.70;22.70;;;;;;20835466;28;20461;-63
2021/05/22 20:14:00;;;;;;;3.53;1.35;;;20.60;22.60;;;;;;20834417;28;20065;-66
2021/05/22 20:24:01;;;;;;;2.78;1.38;;;20.50;24.10;;;;;;20834517;28;20132;-61
2021/05/22 20:34:04;;;;;;;4.07;1.30;;;20.20;27.50;;;;;;20832965;28;20142;-63
2021/05/22 20:44:06;;;;;;;3.90;1.20;;;20.10;28.20;;;;;;20831047;28;20112;-64
2021/05/22 20:54:07;;;;;;;1.83;1.00;;;19.80;28.80;;;;;;20833934;28;20136;-64
2021/05/22 21:04:10;;;;;;;2.92;1.27;;;19.70;29.20;;;;;;20857755;28;20045;-63
2021/05/22 21:14:15;;;;;;;2.80;0.90;;;19.60;29.60;;;;;;20832424;28;20060;-65
2021/05/22 21:24:17;;;;;;;2.92;1.67;;;19.50;29.50;;;;;;20830188;28;20686;-66
2021/05/22 21:34:19;;;;;;;4.82;1.20;;;19.30;29.90;;;;;;20830083;28;20457;-64
2021/05/22 21:44:21;;;;;;;1.73;0.85;;;19.20;29.50;;;;;;20830187;28;20042;-66
2021/05/22 21:54:23;;;;;;;3.97;0.88;;;19.20;29.40;;;;;;20829123;28;20050;-65
2021/05/22 22:04:25;;;;;;;2.85;0.90;;;19.20;29.00;;;;;;20829165;28;20050;-66
2021/05/22 22:14:26;;;;;;;2.83;1.02;;;19.20;28.60;;;;;;20840353;28;20052;-65
2021/05/22 22:24:28;;;;;;;3.55;0.95;;;19.20;28.30;;;;;;20844494;28;20056;-64
2021/05/22 22:34:29;;;;;;;4.32;0.98;;;19.20;28.30;;;;;;20843856;28;20115;-63
2021/05/22 22:44:30;;;;;;;5.47;0.80;;;19.20;28.60;;;;;;20843251;28;20104;-64
2021/05/22 22:54:31;;;;;;;2.38;1.33;;;19.00;29.50;;;;;;20840988;28;20052;-68
2021/05/22 23:04:33;;;;;;;3.45;1.20;;;18.90;30.10;;;;;;20842398;28;20041;-65
2021/05/22 23:14:35;;;;;;;5.10;0.82;;;18.90;30.60;;;;;;20840815;28;20486;-66
2021/05/22 23:24:37;;;;;;;3.50;1.08;;;18.70;30.90;;;;;;20848457;28;20057;-65
2021/05/22 23:34:38;;;;;;;2.83;0.80;;;18.80;31.00;;;;;;20839850;28;20463;-64
2021/05/22 23:44:39;;;;;;;3.17;1.33;;;18.70;31.00;;;;;;20837024;28;20052;-64
2021/05/22 23:54:41;;;;;;;3.45;0.85;;;18.60;31.50;;;;;;20837500;28;20394;-62
